createdAt,value
2022-12-31T00:00:09.078Z,100323.92
2022-12-31T00:01:13.143Z,100311.93
2022-12-31T00:02:17.431Z,100322.20
2022-12-31T00:03:19.973Z,100322.20
2022-12-31T00:04:22.229Z,100326.51
2022-12-31T00:05:24.503Z,100328.22
2022-12-31T00:06:30.123Z,100325.66
2022-12-31T00:08:37.102Z,100323.91
2022-12-31T00:09:39.829Z,100317.91
2022-12-31T00:10:44.355Z,100321.35
2022-12-31T00:11:46.668Z,100323.94
2022-12-31T00:12:49.055Z,100323.06
2022-12-31T00:13:52.087Z,100328.20
2022-12-31T00:14:54.402Z,100327.36
2022-12-31T00:16:12.211Z,100328.23
2022-12-31T00:17:12.984Z,100325.66
2022-12-31T00:18:15.175Z,100329.08
2022-12-31T00:19:18.106Z,100333.34
2022-12-31T00:20:20.671Z,100324.78
2022-12-31T00:21:22.839Z,100330.80
2022-12-31T00:22:24.969Z,100330.79
2022-12-31T00:23:27.298Z,100347.92
2022-12-31T00:24:30.472Z,100327.36
2022-12-31T00:25:35.485Z,100331.63
2022-12-31T00:26:38.629Z,100330.79
2022-12-31T00:27:40.795Z,100345.36
2022-12-31T00:28:43.942Z,100332.52
2022-12-31T00:29:46.217Z,100331.67
2022-12-31T00:30:48.588Z,100336.81
2022-12-31T00:31:50.674Z,100337.66
2022-12-31T00:32:52.781Z,100337.67
2022-12-31T00:33:56.322Z,100344.52
2022-12-31T00:34:58.412Z,100342.81
2022-12-31T00:36:11.591Z,100345.37
2022-12-31T00:37:13.860Z,100339.39
2022-12-31T00:38:15.885Z,100342.81
2022-12-31T00:39:17.935Z,100347.08
2022-12-31T00:40:20.652Z,100344.53
2022-12-31T00:41:24.735Z,100347.95
2022-12-31T00:42:26.878Z,100349.67
2022-12-31T00:43:28.950Z,100349.66
2022-12-31T00:44:30.985Z,100351.35
2022-12-31T00:45:32.802Z,100347.93
2022-12-31T00:47:39.906Z,100346.23
2022-12-31T00:48:42.004Z,100347.95
2022-12-31T00:49:44.287Z,100344.53
2022-12-31T00:50:50.788Z,100345.37
2022-12-31T00:51:53.115Z,100346.22
2022-12-31T00:52:55.372Z,100347.95
2022-12-31T00:53:57.772Z,100351.37
2022-12-31T00:54:59.880Z,100347.95
2022-12-31T00:56:08.828Z,100353.95
2022-12-31T00:57:11.019Z,100347.95
2022-12-31T00:58:13.529Z,100347.95
2022-12-31T00:59:15.447Z,100353.11
2022-12-31T01:00:18.809Z,100353.09
2022-12-31T01:01:27.620Z,100356.50
2022-12-31T01:02:30.123Z,100359.92
2022-12-31T01:03:32.376Z,100357.41
2022-12-31T01:04:34.328Z,100362.52
2022-12-31T01:05:36.866Z,100356.52
2022-12-31T01:06:39.589Z,100357.39
2022-12-31T01:07:41.597Z,100362.53
2022-12-31T01:08:44.617Z,100362.53
2022-12-31T01:09:47.184Z,100368.53
2022-12-31T01:11:08.631Z,100367.66
2022-12-31T01:12:11.241Z,100365.10
2022-12-31T01:13:13.330Z,100371.94
2022-12-31T01:14:18.291Z,100377.08
2022-12-31T01:15:20.330Z,100369.36
2022-12-31T01:16:26.251Z,100378.80
2022-12-31T01:17:28.590Z,100370.23
2022-12-31T01:18:30.485Z,100377.92
2022-12-31T01:19:32.331Z,100373.64
2022-12-31T01:20:40.164Z,100363.38
2022-12-31T01:21:43.884Z,100375.36
2022-12-31T01:22:45.818Z,100378.77
2022-12-31T01:23:48.622Z,100369.37
2022-12-31T01:24:50.911Z,100375.35
2022-12-31T01:25:53.699Z,100371.05
2022-12-31T01:26:57.309Z,100371.91
2022-12-31T01:28:01.284Z,100368.48
2022-12-31T01:29:05.698Z,100373.64
2022-12-31T01:30:09.544Z,100373.63
2022-12-31T01:31:14.656Z,100377.05
2022-12-31T01:32:16.851Z,100383.91
2022-12-31T01:33:19.376Z,100375.33
2022-12-31T01:34:21.523Z,100378.77
2022-12-31T01:35:24.554Z,100372.77
2022-12-31T01:36:29.432Z,100373.59
2022-12-31T01:37:31.733Z,100370.20
2022-12-31T01:38:34.964Z,100371.05
2022-12-31T01:39:37.073Z,100371.06
2022-12-31T01:40:40.583Z,100372.78
2022-12-31T01:41:46.763Z,100369.37
2022-12-31T01:42:58.693Z,100368.49
2022-12-31T01:44:13.670Z,100373.63
2022-12-31T01:45:16.368Z,100371.91
2022-12-31T01:46:42.226Z,100380.48
2022-12-31T01:47:48.142Z,100378.76
2022-12-31T01:48:54.078Z,100377.91
2022-12-31T01:50:00.285Z,100376.19
2022-12-31T01:51:02.902Z,100376.20
2022-12-31T01:52:23.653Z,100367.66
2022-12-31T01:53:25.969Z,100369.37
2022-12-31T01:54:31.014Z,100368.52
2022-12-31T01:55:39.379Z,100371.95
2022-12-31T01:56:44.154Z,100370.21
2022-12-31T01:57:49.847Z,100375.38
2022-12-31T01:58:55.592Z,100372.80
2022-12-31T02:00:00.192Z,100385.63
2022-12-31T02:01:04.618Z,100381.36
2022-12-31T02:02:07.301Z,100382.21
2022-12-31T02:03:10.649Z,100387.37
2022-12-31T02:04:14.915Z,100384.79
2022-12-31T02:05:20.735Z,100380.50
2022-12-31T02:06:29.427Z,100383.91
2022-12-31T02:07:32.282Z,100383.92
2022-12-31T02:08:41.935Z,100388.20
2022-12-31T02:09:42.536Z,100380.51
2022-12-31T02:10:44.812Z,100380.48
2022-12-31T02:11:47.023Z,100389.89
2022-12-31T02:12:49.612Z,100393.33
2022-12-31T02:13:58.361Z,100383.94
2022-12-31T02:14:58.374Z,100390.76
2022-12-31T02:17:35.001Z,100389.02
2022-12-31T02:18:40.775Z,100388.19
2022-12-31T02:20:09.599Z,100395.91
2022-12-31T02:21:18.430Z,100397.61
2022-12-31T02:22:33.163Z,100394.20
2022-12-31T02:23:57.183Z,100392.47
2022-12-31T02:25:19.763Z,100395.05
2022-12-31T02:26:43.870Z,100400.19
2022-12-31T02:28:23.861Z,100404.47
2022-12-31T02:29:49.066Z,100396.74
2022-12-31T02:30:57.943Z,100405.31
2022-12-31T02:32:03.888Z,100401.03
2022-12-31T02:33:16.942Z,100409.61
2022-12-31T02:34:28.631Z,100410.45
2022-12-31T02:35:46.261Z,100413.03
2022-12-31T02:36:51.969Z,100406.16
2022-12-31T02:37:57.759Z,100413.88
2022-12-31T02:39:02.498Z,100413.02
2022-12-31T02:40:08.789Z,100415.59
2022-12-31T02:41:17.874Z,100416.45
2022-12-31T02:42:22.087Z,100418.15
2022-12-31T02:43:26.165Z,100420.72
2022-12-31T02:44:34.552Z,100424.15
2022-12-31T02:45:43.677Z,100430.14
2022-12-31T02:47:02.019Z,100425.01
2022-12-31T02:48:22.408Z,100425.88
2022-12-31T02:49:31.495Z,100435.27
2022-12-31T02:50:55.843Z,100430.16
2022-12-31T02:52:16.542Z,100430.14
2022-12-31T02:53:40.669Z,100430.98
2022-12-31T02:54:46.401Z,100437.84
2022-12-31T02:56:01.600Z,100441.27
2022-12-31T02:57:15.196Z,100439.55
2022-12-31T02:58:29.252Z,100434.41
2022-12-31T03:00:11.926Z,100438.70
2022-12-31T03:01:38.649Z,100436.98
2022-12-31T03:02:45.463Z,100434.42
2022-12-31T03:03:47.784Z,100425.86
2022-12-31T03:04:56.163Z,100434.42
2022-12-31T03:06:04.585Z,100433.55
2022-12-31T03:07:10.204Z,100427.58
2022-12-31T03:08:24.280Z,100431.88
2022-12-31T03:09:26.819Z,100433.57
2022-12-31T03:10:29.046Z,100433.55
2022-12-31T03:11:49.742Z,100432.72
2022-12-31T03:12:52.130Z,100421.58
2022-12-31T03:13:54.253Z,100423.31
2022-12-31T03:14:56.612Z,100424.15
2022-12-31T03:15:58.767Z,100419.03
2022-12-31T03:17:01.222Z,100425.02
2022-12-31T03:18:07.173Z,100422.45
2022-12-31T03:19:27.438Z,100427.59
2022-12-31T03:20:54.899Z,100420.73
2022-12-31T03:22:16.205Z,100422.44
2022-12-31T03:23:22.236Z,100426.72
2022-12-31T03:24:43.222Z,100419.03
2022-12-31T03:25:46.431Z,100418.17
2022-12-31T03:26:48.691Z,100420.75
2022-12-31T03:27:51.698Z,100425.02
2022-12-31T03:30:08.762Z,100423.31
2022-12-31T03:31:13.115Z,100426.73
2022-12-31T03:32:15.637Z,100436.15
2022-12-31T03:33:19.370Z,100431.84
2022-12-31T03:34:23.348Z,100442.12
2022-12-31T03:35:27.756Z,100430.15
2022-12-31T03:36:31.335Z,100441.25
2022-12-31T03:37:34.075Z,100434.41
2022-12-31T03:38:36.277Z,100440.39
2022-12-31T03:39:39.767Z,100432.70
2022-12-31T03:40:46.700Z,100431.85
2022-12-31T03:41:53.007Z,100430.14
2022-12-31T03:42:55.443Z,100431.84
2022-12-31T03:43:57.423Z,100436.97
2022-12-31T03:45:00.738Z,100426.70
2022-12-31T03:46:03.207Z,100419.87
2022-12-31T03:47:05.269Z,100429.30
2022-12-31T03:48:09.690Z,100429.27
2022-12-31T03:49:11.645Z,100431.00
2022-12-31T03:50:16.753Z,100431.02
2022-12-31T03:51:18.692Z,100431.01
2022-12-31T03:52:21.085Z,100428.44
2022-12-31T03:53:23.952Z,100424.16
2022-12-31T03:54:26.092Z,100436.99
2022-12-31T03:55:28.176Z,100431.86
2022-12-31T03:56:30.292Z,100434.42
2022-12-31T03:57:32.510Z,100432.67
2022-12-31T03:58:34.603Z,100429.27
2022-12-31T03:59:36.767Z,100432.66
2022-12-31T04:00:39.035Z,100439.47
2022-12-31T04:01:41.584Z,100435.19
2022-12-31T04:02:44.531Z,100432.60
2022-12-31T04:03:46.839Z,100436.84
2022-12-31T04:04:48.914Z,100439.41
2022-12-31T04:05:55.352Z,100438.55
2022-12-31T04:06:57.909Z,100432.57
2022-12-31T04:08:00.111Z,100429.14
2022-12-31T04:09:02.387Z,100431.66
2022-12-31T04:10:06.968Z,100439.34
2022-12-31T04:11:09.343Z,100434.19
2022-12-31T04:12:11.440Z,100437.63
2022-12-31T04:13:13.443Z,100434.19
2022-12-31T04:14:16.735Z,100442.75
2022-12-31T04:15:20.776Z,100434.25
2022-12-31T04:16:23.221Z,100441.06
2022-12-31T04:17:26.105Z,100445.31
2022-12-31T04:18:28.307Z,100444.45
2022-12-31T04:19:30.353Z,100440.17
2022-12-31T04:20:33.585Z,100456.41
2022-12-31T04:21:36.066Z,100452.14
2022-12-31T04:22:38.942Z,100451.29
2022-12-31T04:23:41.282Z,100457.34
2022-12-31T04:24:43.508Z,100457.34
2022-12-31T04:25:45.748Z,100465.89
2022-12-31T04:26:48.809Z,100471.08
2022-12-31T04:27:50.802Z,100464.23
2022-12-31T04:28:52.965Z,100469.33
2022-12-31T04:29:54.977Z,100469.31
2022-12-31T04:30:57.405Z,100469.31
2022-12-31T04:31:59.546Z,100471.00
2022-12-31T04:33:01.644Z,100467.59
2022-12-31T04:34:04.165Z,100479.54
2022-12-31T04:35:07.802Z,100482.95
2022-12-31T04:36:11.227Z,100479.52
2022-12-31T04:37:13.372Z,100488.05
2022-12-31T04:38:15.504Z,100482.89
2022-12-31T04:39:17.712Z,100488.86
2022-12-31T04:40:20.244Z,100492.27
2022-12-31T04:41:23.502Z,100484.55
2022-12-31T04:42:26.746Z,100484.55
2022-12-31T04:43:29.111Z,100481.11
2022-12-31T04:44:33.115Z,100491.39
2022-12-31T04:45:35.361Z,100493.11
2022-12-31T04:46:37.665Z,100488.83
2022-12-31T04:47:40.394Z,100493.11
2022-12-31T04:48:43.097Z,100492.27
2022-12-31T04:49:46.500Z,100486.30
2022-12-31T04:50:49.114Z,100488.86
2022-12-31T04:51:51.434Z,100499.96
2022-12-31T04:52:53.569Z,100494.83
2022-12-31T04:53:56.036Z,100492.30
2022-12-31T04:54:58.167Z,100495.73
2022-12-31T04:56:00.901Z,100501.70
2022-12-31T04:57:04.243Z,100496.55
2022-12-31T04:58:06.415Z,100493.14
2022-12-31T04:59:09.702Z,100500.02
2022-12-31T05:00:13.474Z,100491.52
2022-12-31T05:01:16.045Z,100495.82
2022-12-31T05:02:18.772Z,100492.38
2022-12-31T05:03:23.208Z,100488.09
2022-12-31T05:04:25.464Z,100498.38
2022-12-31T05:05:27.452Z,100493.25
2022-12-31T05:06:29.830Z,100496.72
2022-12-31T05:07:32.023Z,100491.59
2022-12-31T05:08:34.812Z,100485.58
2022-12-31T05:09:37.010Z,100497.59
2022-12-31T05:10:45.251Z,100499.27
2022-12-31T05:11:47.257Z,100497.56
2022-12-31T05:12:50.247Z,100500.12
2022-12-31T05:13:53.316Z,100505.30
2022-12-31T05:14:55.524Z,100507.91
2022-12-31T05:15:57.999Z,100501.07
2022-12-31T05:17:00.454Z,100507.07
2022-12-31T05:18:03.003Z,100508.77
2022-12-31T05:19:06.360Z,100505.34
2022-12-31T05:20:10.623Z,100503.58
2022-12-31T05:21:16.463Z,100504.45
2022-12-31T05:22:30.567Z,100501.02
2022-12-31T05:23:33.137Z,100506.97
2022-12-31T05:24:35.633Z,100508.64
2022-12-31T05:25:39.507Z,100507.77
2022-12-31T05:26:41.873Z,100515.40
2022-12-31T05:27:43.964Z,100511.96
2022-12-31T05:28:46.591Z,100517.93
2022-12-31T05:29:48.786Z,100517.05
2022-12-31T05:30:51.815Z,100521.30
2022-12-31T05:31:54.522Z,100518.74
2022-12-31T05:32:56.631Z,100522.99
2022-12-31T05:33:58.519Z,100524.67
2022-12-31T05:35:00.579Z,100518.70
2022-12-31T05:36:04.284Z,100525.55
2022-12-31T05:37:06.529Z,100528.92
2022-12-31T05:38:08.629Z,100528.05
2022-12-31T05:39:10.465Z,100523.80
2022-12-31T05:40:12.964Z,100523.76
2022-12-31T05:41:15.060Z,100516.08
2022-12-31T05:42:17.250Z,100516.91
2022-12-31T05:43:19.249Z,100516.91
2022-12-31T05:44:21.431Z,100510.08
2022-12-31T05:45:30.501Z,100513.51
2022-12-31T05:46:28.262Z,100508.42
2022-12-31T05:47:30.384Z,100520.39
2022-12-31T05:48:32.561Z,100510.14
2022-12-31T05:49:34.651Z,100510.91
2022-12-31T05:50:36.767Z,100515.16
2022-12-31T05:51:39.919Z,100512.59
2022-12-31T05:52:47.379Z,100513.44
2022-12-31T05:53:47.699Z,100510.03
2022-12-31T05:54:50.096Z,100512.63
2022-12-31T05:55:52.238Z,100513.51
2022-12-31T05:56:54.678Z,100519.52
2022-12-31T05:57:56.727Z,100513.58
2022-12-31T05:58:59.441Z,100512.77
2022-12-31T06:00:01.584Z,100515.34
2022-12-31T06:01:04.004Z,100525.63
2022-12-31T06:02:06.900Z,100525.63
2022-12-31T06:03:10.154Z,100522.24
2022-12-31T06:04:13.006Z,100526.50
2022-12-31T06:05:15.416Z,100525.63
2022-12-31T06:06:17.848Z,100526.43
2022-12-31T06:07:19.992Z,100522.99
2022-12-31T06:08:23.408Z,100529.80
2022-12-31T06:09:25.488Z,100519.55
2022-12-31T06:10:27.944Z,100523.80
2022-12-31T06:11:30.069Z,100522.08
2022-12-31T06:12:32.223Z,100517.76
2022-12-31T06:13:34.301Z,100520.39
2022-12-31T06:14:42.214Z,100514.42
2022-12-31T06:15:41.097Z,100515.27
2022-12-31T06:16:43.992Z,100520.39
2022-12-31T06:17:46.178Z,100522.15
2022-12-31T06:18:50.204Z,100516.98
2022-12-31T06:19:52.533Z,100522.11
2022-12-31T06:20:57.632Z,100522.18
2022-12-31T06:21:59.711Z,100523.05
2022-12-31T06:23:01.895Z,100523.94
2022-12-31T06:24:04.878Z,100523.87
2022-12-31T06:25:07.956Z,100519.59
2022-12-31T06:26:10.910Z,100514.46
2022-12-31T06:27:13.066Z,100514.46
2022-12-31T06:28:20.111Z,100522.18
2022-12-31T06:29:19.464Z,100528.08
2022-12-31T06:30:22.349Z,100529.84
2022-12-31T06:31:24.492Z,100534.16
2022-12-31T06:32:26.526Z,100534.12
2022-12-31T06:33:29.473Z,100531.55
2022-12-31T06:34:31.642Z,100527.27
2022-12-31T06:35:33.508Z,100526.43
2022-12-31T06:36:35.577Z,100528.16
2022-12-31T06:37:37.685Z,100527.30
2022-12-31T06:38:41.174Z,100525.63
2022-12-31T06:39:43.126Z,100521.27
2022-12-31T06:40:45.237Z,100525.59
2022-12-31T06:41:47.400Z,100523.91
2022-12-31T06:42:53.307Z,100527.30
2022-12-31T06:43:53.425Z,100527.30
2022-12-31T06:44:55.424Z,100538.33
2022-12-31T06:46:05.038Z,100530.67
2022-12-31T06:47:07.025Z,100528.95
2022-12-31T06:48:09.663Z,100533.93
2022-12-31T06:49:12.143Z,100533.84
2022-12-31T06:50:14.642Z,100533.00
2022-12-31T06:51:19.339Z,100542.37
2022-12-31T06:52:21.654Z,100550.93
2022-12-31T06:53:23.941Z,100554.24
2022-12-31T06:54:26.662Z,100548.28
2022-12-31T06:55:29.512Z,100550.84
2022-12-31T06:56:34.753Z,100558.58
2022-12-31T06:57:36.912Z,100560.25
2022-12-31T06:58:40.292Z,100560.99
2022-12-31T06:59:44.272Z,100557.63
2022-12-31T07:00:56.069Z,100556.85
2022-12-31T07:02:05.930Z,100556.84
2022-12-31T07:03:33.329Z,100549.16
2022-12-31T07:04:42.898Z,100549.20
2022-12-31T07:05:54.561Z,100551.81
2022-12-31T07:07:34.699Z,100560.34
2022-12-31T07:08:46.755Z,100550.09
2022-12-31T07:09:58.226Z,100556.94
2022-12-31T07:11:04.199Z,100555.13
2022-12-31T07:12:10.229Z,100552.61
2022-12-31T07:13:25.021Z,100560.38
2022-12-31T07:14:35.312Z,100547.58
2022-12-31T07:15:50.375Z,100553.58
2022-12-31T07:17:14.427Z,100543.30
2022-12-31T07:18:26.125Z,100544.14
2022-12-31T07:19:40.851Z,100550.05
2022-12-31T07:20:43.753Z,100556.09
2022-12-31T07:21:49.102Z,100553.49
2022-12-31T07:22:52.943Z,100554.38
2022-12-31T07:23:55.743Z,100551.81
2022-12-31T07:24:58.279Z,100558.63
2022-12-31T07:26:07.402Z,100558.66
2022-12-31T07:27:33.209Z,100552.70
2022-12-31T07:28:41.800Z,100564.62
2022-12-31T07:30:06.402Z,100557.78
2022-12-31T07:31:30.689Z,100566.35
2022-12-31T07:32:49.011Z,100574.04
2022-12-31T07:34:06.913Z,100568.95
2022-12-31T07:35:19.753Z,100573.19
2022-12-31T07:36:52.799Z,100564.62
2022-12-31T07:38:01.634Z,100573.23
2022-12-31T07:39:24.078Z,100574.92
2022-12-31T07:40:48.061Z,100570.68
2022-12-31T07:42:03.590Z,100573.20
2022-12-31T07:43:33.523Z,100571.42
2022-12-31T07:44:52.479Z,100571.47
2022-12-31T07:46:15.018Z,100573.20
2022-12-31T07:47:26.641Z,100563.03
2022-12-31T07:48:29.583Z,100571.64
2022-12-31T07:49:33.527Z,100568.31
2022-12-31T07:50:36.259Z,100570.07
2022-12-31T07:51:39.657Z,100568.39
2022-12-31T07:52:42.762Z,100565.86
2022-12-31T07:53:44.989Z,100573.64
2022-12-31T07:54:48.554Z,100564.20
2022-12-31T07:55:54.917Z,100571.05
2022-12-31T07:56:57.486Z,100566.80
2022-12-31T07:58:18.317Z,100572.73
2022-12-31T07:59:45.679Z,100576.14
2022-12-31T08:00:49.691Z,100578.70
2022-12-31T08:01:59.487Z,100587.20
2022-12-31T08:03:17.807Z,100579.52
2022-12-31T08:04:35.757Z,100585.52
2022-12-31T08:05:57.108Z,100588.16
2022-12-31T08:07:04.402Z,100582.14
2022-12-31T08:08:25.585Z,100585.48
2022-12-31T08:09:44.124Z,100588.86
2022-12-31T08:10:56.321Z,100585.45
2022-12-31T08:12:01.426Z,100595.78
2022-12-31T08:13:07.145Z,100594.05
2022-12-31T08:14:11.712Z,100599.19
2022-12-31T08:15:17.126Z,100597.50
2022-12-31T08:16:21.208Z,100595.81
2022-12-31T08:17:23.813Z,100599.28
2022-12-31T08:18:26.893Z,100597.59
2022-12-31T08:19:32.483Z,100594.22
2022-12-31T08:20:41.614Z,100593.37
2022-12-31T08:21:50.303Z,100584.06
2022-12-31T08:23:23.237Z,100581.52
2022-12-31T08:24:34.066Z,100582.30
2022-12-31T08:25:42.743Z,100585.78
2022-12-31T08:27:00.840Z,100583.19
2022-12-31T08:28:23.773Z,100584.91
2022-12-31T08:29:29.687Z,100589.17
2022-12-31T08:31:09.095Z,100583.19
2022-12-31T08:32:42.181Z,100587.48
2022-12-31T08:35:42.587Z,100578.12
2022-12-31T08:37:10.137Z,100584.02
2022-12-31T08:38:19.843Z,100580.63
2022-12-31T08:39:34.758Z,100582.31
2022-12-31T08:40:40.741Z,100578.11
2022-12-31T08:41:46.649Z,100580.66
2022-12-31T08:43:01.510Z,100573.01
2022-12-31T08:44:16.507Z,100580.71
2022-12-31T08:48:34.420Z,100578.15
2022-12-31T08:49:37.070Z,100575.52
2022-12-31T08:50:39.778Z,100572.99
2022-12-31T08:51:42.324Z,100570.44
2022-12-31T08:52:46.774Z,100573.05
2022-12-31T08:53:49.879Z,100567.05
2022-12-31T08:54:52.660Z,100578.20
2022-12-31T08:56:05.236Z,100560.24
2022-12-31T08:57:11.234Z,100564.51
2022-12-31T08:58:32.486Z,100562.81
2022-12-31T08:59:38.310Z,100557.69
2022-12-31T09:00:41.328Z,100560.28
2022-12-31T09:01:50.586Z,100556.00
2022-12-31T09:02:56.403Z,100554.29
2022-12-31T09:04:08.259Z,100549.99
2022-12-31T09:05:48.314Z,100550.00
2022-12-31T09:06:57.600Z,100540.58
2022-12-31T09:08:36.484Z,100550.84
2022-12-31T09:10:01.739Z,100551.69
2022-12-31T09:11:23.147Z,100549.08
2022-12-31T09:12:34.009Z,100553.35
2022-12-31T09:13:52.145Z,100549.85
2022-12-31T09:15:07.163Z,100543.84
2022-12-31T09:16:28.961Z,100544.67
2022-12-31T09:17:44.226Z,100547.21
2022-12-31T09:18:46.395Z,100542.05
2022-12-31T09:19:49.064Z,100537.70
2022-12-31T09:20:51.455Z,100535.13
2022-12-31T09:21:54.438Z,100535.07
2022-12-31T09:22:58.476Z,100541.95
2022-12-31T09:24:07.495Z,100533.39
2022-12-31T09:25:05.836Z,100530.77
2022-12-31T09:26:30.763Z,100529.00
2022-12-31T09:27:39.712Z,100526.42
2022-12-31T09:28:57.008Z,100523.77
2022-12-31T09:30:05.685Z,100527.20
2022-12-31T09:31:23.562Z,100528.94
2022-12-31T09:32:46.541Z,100523.77
2022-12-31T09:33:55.252Z,100528.14
2022-12-31T09:35:16.450Z,100528.20
2022-12-31T09:36:31.393Z,100529.75
2022-12-31T09:37:46.075Z,100532.20
2022-12-31T09:39:07.332Z,100536.48
2022-12-31T09:40:38.543Z,100536.40
2022-12-31T09:42:00.736Z,100526.83
2022-12-31T09:43:27.919Z,100524.92
2022-12-31T09:44:55.351Z,100530.80
2022-12-31T09:46:27.276Z,100530.61
2022-12-31T09:47:53.371Z,100521.99
2022-12-31T09:49:10.796Z,100524.50
2022-12-31T09:50:41.609Z,100519.70
2022-12-31T09:51:54.842Z,100517.92
2022-12-31T09:53:18.894Z,100520.44
2022-12-31T09:54:43.147Z,100524.77
2022-12-31T09:56:07.203Z,100518.19
2022-12-31T09:57:27.664Z,100520.02
2022-12-31T09:58:42.191Z,100514.05
2022-12-31T10:00:12.581Z,100516.62
2022-12-31T10:01:22.227Z,100519.14
2022-12-31T10:02:58.004Z,100516.49
2022-12-31T10:04:24.455Z,100515.70
2022-12-31T10:05:52.890Z,100509.70
2022-12-31T10:07:24.625Z,100514.98
2022-12-31T10:08:47.506Z,100515.83
2022-12-31T10:10:02.340Z,100515.87
2022-12-31T10:12:42.871Z,100502.86
2022-12-31T10:13:56.257Z,100496.88
2022-12-31T10:15:31.371Z,100496.78
2022-12-31T10:16:53.982Z,100491.63
2022-12-31T10:18:23.169Z,100489.97
2022-12-31T10:19:35.770Z,100478.78
2022-12-31T10:21:04.479Z,100482.20
2022-12-31T10:22:29.130Z,100483.80
2022-12-31T10:23:35.368Z,100482.02
2022-12-31T10:24:47.163Z,100486.30
2022-12-31T10:26:05.113Z,100477.80
2022-12-31T10:27:39.718Z,100471.70
2022-12-31T10:29:02.357Z,100471.63
2022-12-31T10:30:19.770Z,100473.21
2022-12-31T10:31:31.778Z,100467.96
2022-12-31T10:32:55.850Z,100461.88
2022-12-31T10:34:17.019Z,100463.44
2022-12-31T10:35:28.906Z,100454.84
2022-12-31T10:36:43.678Z,100459.78
2022-12-31T10:38:01.120Z,100460.40
2022-12-31T10:39:14.363Z,100455.20
2022-12-31T10:40:31.330Z,100465.47
2022-12-31T10:41:59.971Z,100456.70
2022-12-31T10:43:11.866Z,100450.55
2022-12-31T10:44:37.690Z,100456.48
2022-12-31T10:45:43.867Z,100454.80
2022-12-31T10:47:10.982Z,100456.48
2022-12-31T10:48:43.401Z,100458.88
2022-12-31T10:50:01.237Z,100457.73
2022-12-31T10:51:20.541Z,100457.55
2022-12-31T10:54:35.478Z,100454.16
2022-12-31T10:56:16.657Z,100451.96
2022-12-31T10:58:03.608Z,100445.08
2022-12-31T10:59:20.287Z,100451.02
2022-12-31T11:00:23.506Z,100438.77
2022-12-31T11:01:33.296Z,100446.41
2022-12-31T11:02:42.130Z,100436.14
2022-12-31T11:03:48.051Z,100436.07
2022-12-31T11:05:27.741Z,100436.77
2022-12-31T11:06:53.805Z,100437.41
2022-12-31T11:08:24.352Z,100437.85
2022-12-31T11:09:34.808Z,100444.00
2022-12-31T11:11:03.774Z,100438.66
2022-12-31T11:12:28.018Z,100435.41
2022-12-31T11:13:54.769Z,100426.26
2022-12-31T11:15:20.152Z,100432.33
2022-12-31T11:16:47.366Z,100430.52
2022-12-31T11:18:13.086Z,100432.16
2022-12-31T11:19:22.597Z,100427.00
2022-12-31T11:20:34.215Z,100423.36
2022-12-31T11:21:43.097Z,100416.48
2022-12-31T11:23:03.978Z,100417.47
2022-12-31T11:24:25.141Z,100423.33
2022-12-31T11:25:40.132Z,100420.81
2022-12-31T11:27:03.006Z,100424.13
2022-12-31T11:28:14.263Z,100417.98
2022-12-31T11:29:20.166Z,100418.16
2022-12-31T11:30:52.916Z,100418.27
2022-12-31T11:32:32.212Z,100423.36
2022-12-31T11:33:52.733Z,100424.13
2022-12-31T11:35:27.741Z,100418.09
2022-12-31T11:37:09.096Z,100418.27
2022-12-31T11:38:30.108Z,100426.59
2022-12-31T11:39:35.818Z,100428.45
2022-12-31T11:40:52.807Z,100426.59
2022-12-31T11:42:25.174Z,100426.59
2022-12-31T11:43:35.144Z,100417.22
2022-12-31T11:44:55.450Z,100420.61
2022-12-31T11:46:20.367Z,100413.92
2022-12-31T11:47:29.495Z,100410.53
2022-12-31T11:48:38.370Z,100401.08
2022-12-31T11:49:53.421Z,100401.11
2022-12-31T11:51:10.902Z,100395.23
2022-12-31T11:52:34.949Z,100399.34
2022-12-31T11:54:21.309Z,100392.46
2022-12-31T11:55:37.592Z,100394.08
2022-12-31T11:56:52.824Z,100395.05
2022-12-31T11:57:58.740Z,100394.14
2022-12-31T11:59:06.133Z,100395.11
2022-12-31T12:00:21.213Z,100394.05
2022-12-31T12:01:33.344Z,100382.75
2022-12-31T12:02:39.590Z,100389.02
2022-12-31T12:03:43.234Z,100388.11
2022-12-31T12:04:48.992Z,100397.44
2022-12-31T12:05:52.662Z,100392.41
2022-12-31T12:06:55.646Z,100386.59
2022-12-31T12:07:58.194Z,100386.61
2022-12-31T12:09:04.962Z,100390.16
2022-12-31T12:10:31.962Z,100390.13
2022-12-31T12:11:34.820Z,100391.75
2022-12-31T12:12:42.288Z,100390.59
2022-12-31T12:13:44.873Z,100389.08
2022-12-31T12:14:51.205Z,100390.59
2022-12-31T12:16:02.657Z,100389.94
2022-12-31T12:17:17.683Z,100388.33
2022-12-31T12:18:27.430Z,100381.42
2022-12-31T12:19:32.228Z,100380.36
2022-12-31T12:20:37.812Z,100375.13
2022-12-31T12:21:45.592Z,100369.20
2022-12-31T12:22:51.509Z,100369.20
2022-12-31T12:23:59.776Z,100370.94
2022-12-31T12:25:08.803Z,100360.67
2022-12-31T12:26:35.097Z,100372.74
2022-12-31T12:27:37.444Z,100369.23
2022-12-31T12:28:45.700Z,100371.03
2022-12-31T12:29:48.233Z,100377.07
2022-12-31T12:31:03.707Z,100358.97
2022-12-31T12:32:18.273Z,100363.09
2022-12-31T12:33:20.826Z,100361.58
2022-12-31T12:34:28.975Z,100356.33
2022-12-31T12:35:35.598Z,100353.73
2022-12-31T12:36:41.661Z,100353.73
2022-12-31T12:37:45.097Z,100365.94
2022-12-31T12:38:47.646Z,100352.34
2022-12-31T12:41:25.833Z,100348.48
2022-12-31T12:42:29.370Z,100352.00
2022-12-31T12:43:36.606Z,100358.77
2022-12-31T12:44:41.186Z,100365.78
2022-12-31T12:45:51.416Z,100360.35
2022-12-31T12:46:53.506Z,100360.52
2022-12-31T12:47:59.932Z,100363.10
2022-12-31T12:49:03.469Z,100362.83
2022-12-31T12:50:10.915Z,100363.10
2022-12-31T12:51:32.122Z,100353.73
2022-12-31T12:52:50.509Z,100356.33
2022-12-31T12:54:06.332Z,100349.98
2022-12-31T12:55:29.471Z,100348.31
2022-12-31T12:56:47.023Z,100350.02
2022-12-31T12:58:21.702Z,100336.48
2022-12-31T12:59:30.374Z,100338.32
2022-12-31T13:00:48.022Z,100343.41
2022-12-31T13:02:03.992Z,100334.70
2022-12-31T13:03:19.260Z,100343.25
2022-12-31T13:04:43.473Z,100351.91
2022-12-31T13:05:59.364Z,100353.70
2022-12-31T13:07:33.958Z,100352.22
2022-12-31T13:08:49.135Z,100350.26
2022-12-31T13:10:00.913Z,100362.39
2022-12-31T13:11:17.616Z,100358.28
2022-12-31T13:13:51.048Z,100363.45
2022-12-31T13:15:14.551Z,100374.00
2022-12-31T13:16:23.636Z,100374.15
2022-12-31T13:17:53.289Z,100376.73
2022-12-31T13:19:01.293Z,100379.36
2022-12-31T13:20:26.499Z,100378.47
2022-12-31T13:21:33.613Z,100383.57
2022-12-31T13:24:12.127Z,100377.88
2022-12-31T13:25:27.946Z,100374.55
2022-12-31T13:26:59.276Z,100378.81
2022-12-31T13:28:05.080Z,100377.22
2022-12-31T13:29:11.333Z,100374.73